createdAt,value
2023-03-10T01:07:57.223Z,5.50
2023-03-10T01:10:27.472Z,6.30
2023-03-10T01:12:56.064Z,5.40
2023-03-10T01:15:25.611Z,5.60
2023-03-10T01:17:54.241Z,5.60
2023-03-10T01:20:22.935Z,5.40
2023-03-10T01:22:52.275Z,5.30
2023-03-10T01:25:20.803Z,5.90
2023-03-10T01:27:49.285Z,5.10
2023-03-10T01:30:18.300Z,6.20
2023-03-10T01:32:48.401Z,5.70
2023-03-10T01:35:16.975Z,6.00
2023-03-10T01:37:49.726Z,5.70
2023-03-10T01:40:19.058Z,5.60
2023-03-10T01:42:50.352Z,5.10
2023-03-10T01:45:19.107Z,5.40
2023-03-10T01:47:47.369Z,5.70
2023-03-10T01:50:16.806Z,5.50
2023-03-10T01:52:47.360Z,5.90
2023-03-10T01:55:20.300Z,5.60
2023-03-10T01:57:58.023Z,5.20
2023-03-10T02:00:28.203Z,4.70
2023-03-10T02:05:38.360Z,5.10
2023-03-10T02:08:09.013Z,5.20
2023-03-10T02:10:38.253Z,5.30
2023-03-10T02:13:06.693Z,5.40
2023-03-10T02:15:36.327Z,5.60
2023-03-10T02:18:06.242Z,5.70
2023-03-10T02:21:01.164Z,6.20
2023-03-10T02:24:01.736Z,5.50
2023-03-10T02:26:33.462Z,5.70
2023-03-10T02:29:02.288Z,5.70
2023-03-10T02:31:30.874Z,5.50
2023-03-10T02:33:59.910Z,6.10
2023-03-10T02:36:28.355Z,5.80
2023-03-10T02:38:56.541Z,6.10
2023-03-10T02:41:35.657Z,6.30
2023-03-10T02:44:07.310Z,5.90
2023-03-10T02:46:37.234Z,6.50
2023-03-10T02:49:10.863Z,6.10
2023-03-10T02:51:46.445Z,6.00
2023-03-10T02:54:19.322Z,5.30
2023-03-10T02:56:47.687Z,5.20
2023-03-10T02:59:16.810Z,5.90
2023-03-10T03:01:55.860Z,5.70
2023-03-10T03:04:24.526Z,6.20
2023-03-10T03:06:52.857Z,6.00
2023-03-10T03:09:22.787Z,5.70
2023-03-10T03:11:51.351Z,5.80
2023-03-10T03:14:19.881Z,6.00
2023-03-10T03:16:49.644Z,5.80
2023-03-10T03:19:18.083Z,6.40
2023-03-10T03:21:50.173Z,6.20
2023-03-10T03:24:21.206Z,6.00
2023-03-10T03:26:49.649Z,6.20
2023-03-10T03:29:20.528Z,6.70
2023-03-10T03:31:48.890Z,7.00
2023-03-10T03:34:23.955Z,6.40
2023-03-10T03:36:54.269Z,6.00
2023-03-10T03:39:30.043Z,5.50
2023-03-10T03:44:33.868Z,6.10
2023-03-10T03:47:02.421Z,6.00
2023-03-10T03:49:31.573Z,6.70
2023-03-10T03:51:59.869Z,6.50
2023-03-10T03:54:28.938Z,6.70
2023-03-10T03:56:59.449Z,6.70
2023-03-10T03:59:27.955Z,6.50
2023-03-10T04:01:56.717Z,5.20
2023-03-10T04:04:25.737Z,5.40
2023-03-10T04:06:54.041Z,6.20
2023-03-10T04:09:22.423Z,5.40
2023-03-10T04:11:51.013Z,5.20
2023-03-10T04:14:21.507Z,7.20
2023-03-10T04:16:50.380Z,5.30
2023-03-10T04:19:22.792Z,5.40
2023-03-10T04:21:53.451Z,6.20
2023-03-10T04:24:21.868Z,5.50
2023-03-10T04:26:50.411Z,5.00
2023-03-10T04:29:19.286Z,5.70
2023-03-10T04:32:04.167Z,5.50
2023-03-10T04:34:35.211Z,5.80
2023-03-10T04:37:04.280Z,5.90
2023-03-10T04:39:34.165Z,5.40
2023-03-10T04:42:02.883Z,5.60
2023-03-10T04:44:34.554Z,5.80
2023-03-10T04:47:04.601Z,5.30
2023-03-10T04:49:33.238Z,6.10
2023-03-10T04:52:04.590Z,6.00
2023-03-10T04:54:33.748Z,5.80
2023-03-10T04:57:05.050Z,5.70
2023-03-10T04:59:33.776Z,6.10
2023-03-10T05:02:03.022Z,6.20
2023-03-10T05:04:31.794Z,5.90
2023-03-10T05:07:00.255Z,5.70
2023-03-10T05:09:37.695Z,5.30
2023-03-10T05:12:07.181Z,5.50
2023-03-10T05:14:41.146Z,6.50
2023-03-10T05:17:10.608Z,6.30
2023-03-10T05:19:39.382Z,5.60
2023-03-10T05:22:11.687Z,5.70
2023-03-10T05:24:40.152Z,5.40
2023-03-10T05:27:08.912Z,6.00
2023-03-10T05:29:39.371Z,5.70
2023-03-10T05:32:13.650Z,5.70
2023-03-10T05:34:46.843Z,5.30
2023-03-10T05:37:15.472Z,6.10
2023-03-10T05:39:44.552Z,6.00
2023-03-10T05:42:17.041Z,6.40
2023-03-10T05:44:45.629Z,5.70
2023-03-10T05:47:20.079Z,6.20
2023-03-10T05:49:48.881Z,5.50
2023-03-10T05:52:17.390Z,6.50
2023-03-10T05:54:46.461Z,7.80
2023-03-10T05:57:15.115Z,7.30
2023-03-10T05:59:43.932Z,8.10
2023-03-10T06:02:12.494Z,7.30
2023-03-10T06:04:40.733Z,6.60
2023-03-10T06:07:08.995Z,7.00
2023-03-10T06:09:37.358Z,5.40
2023-03-10T06:12:06.306Z,4.70
2023-03-10T06:14:35.447Z,5.10
2023-03-10T06:17:04.344Z,5.10
2023-03-10T06:19:35.618Z,5.50
2023-03-10T06:22:04.373Z,5.70
2023-03-10T06:24:32.629Z,5.50
2023-03-10T06:27:00.909Z,4.60
2023-03-10T06:29:31.860Z,5.70
2023-03-10T06:32:04.228Z,7.20
2023-03-10T06:34:32.854Z,6.40
2023-03-10T06:37:01.131Z,6.60
2023-03-10T06:39:31.669Z,6.60
2023-03-10T06:42:01.275Z,6.20
2023-03-10T06:44:30.063Z,6.90
2023-03-10T06:46:59.103Z,6.30
2023-03-10T06:49:32.393Z,7.10
2023-03-10T06:52:01.382Z,6.10
2023-03-10T06:54:31.187Z,7.50
2023-03-10T06:57:00.171Z,6.30
2023-03-10T06:59:31.950Z,6.20
2023-03-10T07:02:00.224Z,6.20
2023-03-10T07:04:28.573Z,6.10
2023-03-10T07:06:57.137Z,6.00
2023-03-10T07:09:27.386Z,6.50
2023-03-10T07:11:57.530Z,6.90
2023-03-10T07:14:26.196Z,8.00
2023-03-10T07:16:56.712Z,18.00
2023-03-10T07:19:25.338Z,7.80
2023-03-10T07:21:54.374Z,7.10
2023-03-10T07:24:24.282Z,6.80
2023-03-10T07:26:53.360Z,6.20
2023-03-10T07:29:22.670Z,7.70
2023-03-10T07:31:51.609Z,6.10
2023-03-10T07:34:21.388Z,6.00
2023-03-10T07:36:52.501Z,5.10
2023-03-10T07:39:21.902Z,5.80
2023-03-10T07:41:50.730Z,6.20
2023-03-10T07:44:20.050Z,6.00
2023-03-10T07:46:48.780Z,5.50
2023-03-10T07:49:18.551Z,6.40
2023-03-10T07:51:48.319Z,6.20
2023-03-10T07:54:17.093Z,5.70
2023-03-10T07:56:45.649Z,5.70
2023-03-10T07:59:15.072Z,5.70
2023-03-10T08:01:43.468Z,6.00
2023-03-10T08:04:12.813Z,5.70
2023-03-10T08:06:41.622Z,5.50
2023-03-10T08:09:10.100Z,6.20
2023-03-10T08:14:09.614Z,10.20
2023-03-10T08:16:43.218Z,5.70
2023-03-10T08:19:11.870Z,5.30
2023-03-10T08:21:41.528Z,5.70
2023-03-10T08:24:13.867Z,6.10
2023-03-10T08:26:42.511Z,5.70
2023-03-10T08:29:11.619Z,6.60
2023-03-10T08:31:41.218Z,6.00
2023-03-10T08:34:09.929Z,5.60
2023-03-10T08:36:39.081Z,5.20
2023-03-10T08:39:08.013Z,5.50
2023-03-10T08:41:37.866Z,5.30
2023-03-10T08:44:08.118Z,5.10
2023-03-10T08:46:36.724Z,6.00
2023-03-10T08:49:05.078Z,8.70
2023-03-10T08:51:35.869Z,7.80
2023-03-10T08:54:04.473Z,5.80
2023-03-10T08:56:32.974Z,5.70
2023-03-10T08:59:01.448Z,4.90
2023-03-10T09:01:35.453Z,5.50
2023-03-10T09:04:05.211Z,4.30
2023-03-10T09:06:33.680Z,19.90
2023-03-10T09:09:02.208Z,9.30
2023-03-10T09:11:32.528Z,5.10
2023-03-10T09:14:01.274Z,4.20
2023-03-10T09:16:31.606Z,10.90
2023-03-10T09:19:01.282Z,8.00
2023-03-10T09:21:33.114Z,7.00
2023-03-10T09:24:03.456Z,7.00
2023-03-10T09:26:31.917Z,6.90
2023-03-10T09:29:05.116Z,7.10
2023-03-10T09:31:36.307Z,5.80
2023-03-10T09:34:06.361Z,5.30
2023-03-10T09:36:34.852Z,5.50
2023-03-10T09:39:03.919Z,6.10
2023-03-10T09:41:58.602Z,5.20
2023-03-10T09:44:43.556Z,4.80
2023-03-10T09:47:24.242Z,4.80
2023-03-10T09:49:52.872Z,5.50
2023-03-10T09:52:46.690Z,6.40
2023-03-10T09:55:26.211Z,6.50
2023-03-10T09:57:55.432Z,6.30
2023-03-10T10:00:27.636Z,6.80
2023-03-10T10:03:01.789Z,6.20
2023-03-10T10:05:33.727Z,6.50
2023-03-10T10:08:06.179Z,5.70
2023-03-10T10:10:37.473Z,6.20
2023-03-10T10:13:14.793Z,5.40
2023-03-10T10:15:46.038Z,5.70
2023-03-10T10:18:20.742Z,4.20
2023-03-10T10:21:00.582Z,5.10
2023-03-10T10:23:34.058Z,4.80
2023-03-10T10:26:10.789Z,6.50
2023-03-10T10:28:42.279Z,4.90
2023-03-10T10:31:18.402Z,7.30
2023-03-10T10:33:58.130Z,8.00
2023-03-10T10:36:48.651Z,8.10
2023-03-10T10:39:37.325Z,8.30
2023-03-10T10:42:18.911Z,7.90
2023-03-10T10:44:47.570Z,7.70
2023-03-10T10:47:24.561Z,7.80
2023-03-10T10:49:53.415Z,8.30
2023-03-10T10:52:23.623Z,8.40
2023-03-10T10:54:58.891Z,8.20
2023-03-10T10:57:34.041Z,6.50
2023-03-10T11:00:15.477Z,7.90
2023-03-10T11:02:49.663Z,7.40
2023-03-10T11:05:25.834Z,7.00
2023-03-10T11:07:54.108Z,8.10
2023-03-10T11:10:32.993Z,13.20
2023-03-10T11:13:12.577Z,9.60
2023-03-10T11:15:50.117Z,7.10
2023-03-10T11:18:30.460Z,7.50
2023-03-10T11:21:31.876Z,6.20
2023-03-10T11:24:14.236Z,6.20
2023-03-10T11:26:56.430Z,6.40
2023-03-10T11:29:31.322Z,7.00
2023-03-10T11:32:08.904Z,7.60
2023-03-10T11:34:41.815Z,17.30
2023-03-10T11:37:36.478Z,7.20
2023-03-10T11:40:38.070Z,15.90
2023-03-10T11:43:38.339Z,9.30
2023-03-10T11:46:28.766Z,17.00
2023-03-10T11:49:16.762Z,7.00
2023-03-10T11:51:49.672Z,5.90
2023-03-10T11:54:30.249Z,4.70
2023-03-10T11:57:00.110Z,6.30
2023-03-10T11:59:30.694Z,5.00
2023-03-10T12:01:59.822Z,3.90
2023-03-10T12:04:32.159Z,4.00
2023-03-10T12:07:04.819Z,4.00
2023-03-10T12:09:57.996Z,3.60
2023-03-10T12:12:27.277Z,3.50
2023-03-10T12:15:00.607Z,3.40
2023-03-10T12:17:29.792Z,3.20
2023-03-10T12:20:13.890Z,3.30
2023-03-10T12:22:43.032Z,3.50
2023-03-10T12:25:29.607Z,3.60
2023-03-10T12:28:16.230Z,3.60
2023-03-10T12:30:51.677Z,4.00
2023-03-10T12:33:39.904Z,3.60
2023-03-10T12:36:34.266Z,4.50
2023-03-10T12:39:24.341Z,4.70
2023-03-10T12:41:56.855Z,4.70
2023-03-10T12:44:37.105Z,8.20
2023-03-10T12:47:08.581Z,6.30
2023-03-10T12:49:43.419Z,5.50
2023-03-10T12:52:20.892Z,5.70
2023-03-10T12:54:56.154Z,5.70
2023-03-10T12:57:45.213Z,5.90
2023-03-10T13:00:23.865Z,6.60
2023-03-10T13:03:02.958Z,6.60
2023-03-10T13:05:34.223Z,6.30
2023-03-10T13:08:24.424Z,7.50
2023-03-10T13:10:54.978Z,6.80
2023-03-10T13:13:27.597Z,8.90
2023-03-10T13:16:19.372Z,10.50
2023-03-10T13:18:52.109Z,9.20
2023-03-10T13:21:46.777Z,8.70
2023-03-10T13:24:28.707Z,10.00
2023-03-10T13:27:08.473Z,8.70
2023-03-10T13:29:37.645Z,9.50
2023-03-10T13:32:06.571Z,8.70
2023-03-10T13:34:36.918Z,9.40
2023-03-10T13:37:06.813Z,9.20
2023-03-10T13:39:35.871Z,8.30
2023-03-10T13:42:21.385Z,9.60
2023-03-10T13:44:53.154Z,9.40
2023-03-10T13:47:23.404Z,9.00
2023-03-10T13:49:56.594Z,8.30
2023-03-10T13:52:30.106Z,8.10
2023-03-10T13:55:12.957Z,8.50
2023-03-10T13:57:42.360Z,10.50
2023-03-10T14:00:18.757Z,9.20
2023-03-10T14:02:48.670Z,10.90
2023-03-10T14:05:41.773Z,10.40
2023-03-10T14:08:31.085Z,8.80
2023-03-10T14:11:22.204Z,9.00
2023-03-10T14:13:51.779Z,8.70
2023-03-10T14:16:20.301Z,8.60
2023-03-10T14:18:51.325Z,8.50
2023-03-10T14:21:25.335Z,8.70
2023-03-10T14:23:57.096Z,10.50
2023-03-10T14:26:25.565Z,9.80
2023-03-10T14:28:54.384Z,9.70
2023-03-10T14:31:23.961Z,10.30
2023-03-10T14:33:52.452Z,9.00
2023-03-10T14:36:20.917Z,9.80
2023-03-10T14:38:52.614Z,9.00
2023-03-10T14:41:23.868Z,10.10
2023-03-10T14:43:52.291Z,10.40
2023-03-10T14:46:20.947Z,10.20
2023-03-10T14:48:50.234Z,10.00
2023-03-10T14:51:32.632Z,9.20
2023-03-10T14:54:03.956Z,7.80
2023-03-10T14:56:33.644Z,8.00
2023-03-10T14:59:02.791Z,8.60
2023-03-10T15:01:31.535Z,9.70
2023-03-10T15:03:59.884Z,9.30
2023-03-10T15:06:28.342Z,10.60
2023-03-10T15:08:56.646Z,9.90
2023-03-10T15:11:36.534Z,8.80
2023-03-10T15:14:14.392Z,9.80
2023-03-10T15:16:49.237Z,9.90
2023-03-10T15:19:25.100Z,12.40
2023-03-10T15:21:53.780Z,11.00
2023-03-10T15:24:22.124Z,11.40
2023-03-10T15:26:50.786Z,11.80
2023-03-10T15:29:23.676Z,11.40
2023-03-10T15:31:53.149Z,12.10
2023-03-10T15:34:21.411Z,12.00
2023-03-10T15:36:51.609Z,12.70
2023-03-10T15:39:31.151Z,12.40
2023-03-10T15:42:00.644Z,12.60
2023-03-10T15:44:29.556Z,11.90
2023-03-10T15:47:00.246Z,12.60
2023-03-10T15:49:30.142Z,12.10
2023-03-10T15:51:58.425Z,12.10
2023-03-10T15:54:26.644Z,15.20
2023-03-10T15:56:55.262Z,13.40
2023-03-10T15:59:28.147Z,14.50
2023-03-10T16:01:57.879Z,16.50
2023-03-10T16:04:26.396Z,18.50
2023-03-10T16:06:55.050Z,20.70
2023-03-10T16:09:23.406Z,22.30
2023-03-10T16:11:52.334Z,20.70
2023-03-10T16:14:26.598Z,20.00
2023-03-10T16:16:55.147Z,18.90
2023-03-10T16:19:23.554Z,18.30
2023-03-10T16:21:53.746Z,15.50
2023-03-10T16:24:22.291Z,14.30
2023-03-10T16:26:50.522Z,11.60
2023-03-10T16:29:20.098Z,12.20
2023-03-10T16:31:48.598Z,11.60
2023-03-10T16:34:18.813Z,10.80
2023-03-10T16:36:49.764Z,12.10
2023-03-10T16:39:18.433Z,12.40
2023-03-10T16:41:50.099Z,12.30
2023-03-10T16:44:18.633Z,11.20
2023-03-10T16:46:47.162Z,11.30
2023-03-10T16:49:16.018Z,10.30
2023-03-10T16:51:45.348Z,11.70
2023-03-10T16:54:21.686Z,11.80
2023-03-10T16:56:51.709Z,11.50
2023-03-10T16:59:27.067Z,11.20
2023-03-10T17:01:55.973Z,11.80
2023-03-10T17:04:24.396Z,11.40
2023-03-10T17:06:52.726Z,11.10
2023-03-10T17:09:21.041Z,10.00
2023-03-10T17:11:55.278Z,10.60
2023-03-10T17:14:24.412Z,10.70
2023-03-10T17:16:54.173Z,11.90
2023-03-10T17:19:28.843Z,11.80
2023-03-10T17:21:58.414Z,10.90
2023-03-10T17:24:27.596Z,11.40
2023-03-10T17:26:57.137Z,12.10
2023-03-10T17:29:25.723Z,10.30
2023-03-10T17:31:59.680Z,9.60
2023-03-10T17:34:29.561Z,10.20
2023-03-10T17:36:57.950Z,8.80
2023-03-10T17:39:27.982Z,10.80
2023-03-10T17:41:56.404Z,11.60
2023-03-10T17:44:27.543Z,11.60
2023-03-10T17:46:58.856Z,10.80
2023-03-10T17:49:27.324Z,11.80
2023-03-10T17:51:55.981Z,9.90
2023-03-10T17:54:24.528Z,9.90
2023-03-10T17:56:54.278Z,10.40
2023-03-10T17:59:22.800Z,9.20
2023-03-10T18:01:51.244Z,9.50
2023-03-10T18:04:19.966Z,10.10
2023-03-10T18:06:49.064Z,10.40
2023-03-10T18:09:37.297Z,11.10
2023-03-10T18:12:06.831Z,15.40
2023-03-10T18:14:36.567Z,10.10
2023-03-10T18:17:05.525Z,10.60
2023-03-10T18:19:33.874Z,10.80
2023-03-10T18:22:08.313Z,11.60
2023-03-10T18:24:43.237Z,11.30
2023-03-10T18:27:12.341Z,11.30
2023-03-10T18:29:41.716Z,11.80
2023-03-10T18:32:12.643Z,10.70
2023-03-10T18:34:42.556Z,10.60
2023-03-10T18:37:10.918Z,10.20
2023-03-10T18:39:41.192Z,9.80
2023-03-10T18:42:10.621Z,9.40
2023-03-10T18:44:39.741Z,9.80
2023-03-10T18:47:09.180Z,11.50
2023-03-10T18:49:37.474Z,11.10
2023-03-10T18:52:06.095Z,12.00
2023-03-10T18:54:36.084Z,11.70
2023-03-10T18:57:05.889Z,10.60
2023-03-10T18:59:34.639Z,11.30
2023-03-10T19:02:03.833Z,10.50
2023-03-10T19:04:33.087Z,10.50
2023-03-10T19:07:05.895Z,10.50
2023-03-10T19:09:43.884Z,10.50
2023-03-10T19:12:12.206Z,10.60
2023-03-10T19:14:41.735Z,14.60
2023-03-10T19:17:10.534Z,9.80
2023-03-10T19:19:44.056Z,10.90
2023-03-10T19:22:13.008Z,11.20
2023-03-10T19:24:41.341Z,11.80
2023-03-10T19:27:12.062Z,12.00
2023-03-10T19:29:41.144Z,11.40
2023-03-10T19:32:10.756Z,11.30
2023-03-10T19:34:39.684Z,11.00
2023-03-10T19:37:08.064Z,16.10
2023-03-10T19:42:07.569Z,11.50
2023-03-10T19:44:38.754Z,12.30
2023-03-10T19:49:38.329Z,12.70
2023-03-10T19:52:07.309Z,11.80
2023-03-10T19:54:35.865Z,10.90
2023-03-10T19:57:05.026Z,12.00
2023-03-10T19:59:33.856Z,12.10
2023-03-10T20:02:03.432Z,11.40
2023-03-10T20:04:34.711Z,11.90
2023-03-10T20:07:03.112Z,11.50
2023-03-10T20:09:33.886Z,11.90
2023-03-10T20:12:02.261Z,11.70
2023-03-10T20:14:31.390Z,11.20
2023-03-10T20:17:00.771Z,12.50
2023-03-10T20:19:30.769Z,12.50
2023-03-10T20:21:59.560Z,12.50
2023-03-10T20:24:27.870Z,12.40
2023-03-10T20:26:59.132Z,12.00
2023-03-10T20:29:33.912Z,11.60
2023-03-10T20:32:04.517Z,12.00
2023-03-10T20:34:33.142Z,13.30
2023-03-10T20:37:01.488Z,11.80
2023-03-10T20:39:31.676Z,10.90
2023-03-10T20:42:00.672Z,11.10
2023-03-10T20:44:29.695Z,11.20
2023-03-10T20:46:58.108Z,10.50
2023-03-10T20:49:26.705Z,10.60
2023-03-10T20:51:55.294Z,10.60
2023-03-10T20:54:23.975Z,10.90
2023-03-10T20:56:52.741Z,10.40
2023-03-10T20:59:24.533Z,9.90
2023-03-10T21:01:53.134Z,9.70
2023-03-10T21:04:21.616Z,8.70
2023-03-10T21:06:50.175Z,8.90
2023-03-10T21:09:19.360Z,9.00
2023-03-10T21:11:50.498Z,9.70
2023-03-10T21:14:19.355Z,10.10
2023-03-10T21:16:47.860Z,15.80
2023-03-10T21:19:24.039Z,11.30
2023-03-10T21:21:52.735Z,10.10
2023-03-10T21:24:21.910Z,9.70
2023-03-10T21:26:50.351Z,10.20
2023-03-10T21:29:18.827Z,9.80
2023-03-10T21:31:50.057Z,9.40
2023-03-10T21:34:19.037Z,9.70
2023-03-10T21:36:47.428Z,10.00
2023-03-10T21:39:15.730Z,11.00
2023-03-10T21:41:44.248Z,12.90
2023-03-10T21:44:12.665Z,12.60
2023-03-10T21:46:41.855Z,12.20
2023-03-10T21:49:13.267Z,10.80
2023-03-10T21:51:45.239Z,11.00
2023-03-10T21:54:13.650Z,10.80
2023-03-10T21:56:42.090Z,12.20
2023-03-10T21:59:10.738Z,12.00
2023-03-10T22:01:43.118Z,11.60
2023-03-10T22:04:12.284Z,13.20
2023-03-10T22:06:41.804Z,12.10
2023-03-10T22:09:11.529Z,9.70
2023-03-10T22:11:40.922Z,8.90
2023-03-10T22:14:10.613Z,9.10
2023-03-10T22:16:39.108Z,9.00
2023-03-10T22:19:09.618Z,8.50
2023-03-10T22:21:38.113Z,8.90
2023-03-10T22:24:06.597Z,9.80
2023-03-10T22:26:35.430Z,8.50
2023-03-10T22:29:03.804Z,45.00
2023-03-10T22:31:32.822Z,12.00
2023-03-10T22:34:01.271Z,9.30
2023-03-10T22:36:34.120Z,8.10
2023-03-10T22:39:03.376Z,7.80
2023-03-10T22:41:31.923Z,8.20
2023-03-10T22:44:00.483Z,9.30
2023-03-10T22:46:29.027Z,8.30
2023-03-10T22:48:59.139Z,8.50
2023-03-10T22:51:27.646Z,10.30
2023-03-10T22:53:59.187Z,8.60
2023-03-10T22:56:27.850Z,8.70
2023-03-10T22:58:56.506Z,8.30
2023-03-10T23:01:25.145Z,8.30
2023-03-10T23:03:54.036Z,7.80
2023-03-10T23:06:26.406Z,8.00
2023-03-10T23:08:57.018Z,7.60
2023-03-10T23:11:26.622Z,7.80
2023-03-10T23:13:56.461Z,7.70
2023-03-10T23:16:24.859Z,7.40
2023-03-10T23:18:53.597Z,7.80
2023-03-10T23:21:22.046Z,7.50
2023-03-10T23:23:51.702Z,7.70
2023-03-10T23:26:20.138Z,7.80
2023-03-10T23:28:50.852Z,7.40
2023-03-10T23:31:19.561Z,7.70
2023-03-10T23:33:49.715Z,7.80
2023-03-10T23:36:18.571Z,8.10
2023-03-10T23:38:46.949Z,7.10
2023-03-10T23:41:15.304Z,7.40
2023-03-10T23:43:43.901Z,8.40
2023-03-10T23:46:12.516Z,7.00
2023-03-10T23:48:41.772Z,8.10
2023-03-10T23:51:16.296Z,7.00
2023-03-10T23:53:46.494Z,7.60
2023-03-10T23:56:14.764Z,7.60
2023-03-10T23:58:43.578Z,7.80
